sensor_id;sensor_type;location;lat;lon;timestamp;pressure;altitude;pressure_sealevel;temperature;humidity
33845;BME280;20145;43.118;25.694;2023-07-20T00:02:21;99209.09;;;25.11;65.36
33845;BME280;20145;43.118;25.694;2023-07-20T00:04:47;99206.03;;;25.04;66.15
33845;BME280;20145;43.118;25.694;2023-07-20T00:07:12;99195.25;;;25.07;66.33
33845;BME280;20145;43.118;25.694;2023-07-20T00:09:38;99174.56;;;24.90;66.55
33845;BME280;20145;43.118;25.694;2023-07-20T00:12:03;99186.50;;;25.07;66.45
33845;BME280;20145;43.118;25.694;2023-07-20T00:14:29;99190.16;;;24.93;67.02
33845;BME280;20145;43.118;25.694;2023-07-20T00:16:55;99188.06;;;24.74;67.54
33845;BME280;20145;43.118;25.694;2023-07-20T00:19:27;99200.19;;;24.77;65.51
33845;BME280;20145;43.118;25.694;2023-07-20T00:21:54;99192.13;;;24.67;66.38
33845;BME280;20145;43.118;25.694;2023-07-20T00:24:21;99162.78;;;24.47;67.71
33845;BME280;20145;43.118;25.694;2023-07-20T00:26:46;99178.47;;;24.49;68.52
33845;BME280;20145;43.118;25.694;2023-07-20T00:29:12;99173.84;;;24.40;68.99
33845;BME280;20145;43.118;25.694;2023-07-20T00:31:37;99166.34;;;24.10;70.95
33845;BME280;20145;43.118;25.694;2023-07-20T00:34:04;99161.09;;;24.10;71.39
33845;BME280;20145;43.118;25.694;2023-07-20T00:36:29;99141.22;;;23.93;74.09
33845;BME280;20145;43.118;25.694;2023-07-20T00:38:55;99161.56;;;23.91;75.53
33845;BME280;20145;43.118;25.694;2023-07-20T00:41:21;99120.16;;;23.67;75.19
33845;BME280;20145;43.118;25.694;2023-07-20T00:43:47;99129.75;;;23.68;75.89
33845;BME280;20145;43.118;25.694;2023-07-20T00:46:13;99108.81;;;23.54;76.06
33845;BME280;20145;43.118;25.694;2023-07-20T00:48:40;99116.50;;;23.57;76.90
33845;BME280;20145;43.118;25.694;2023-07-20T00:51:06;99097.28;;;23.68;76.88
33845;BME280;20145;43.118;25.694;2023-07-20T00:53:32;99102.75;;;23.77;74.50
33845;BME280;20145;43.118;25.694;2023-07-20T00:55:58;99094.53;;;23.82;74.13
33845;BME280;20145;43.118;25.694;2023-07-20T00:58:24;99112.22;;;23.93;73.23
33845;BME280;20145;43.118;25.694;2023-07-20T01:00:51;99104.84;;;23.98;73.50
33845;BME280;20145;43.118;25.694;2023-07-20T01:03:17;99096.19;;;23.96;74.70
33845;BME280;20145;43.118;25.694;2023-07-20T01:05:56;99066.81;;;23.89;75.16
33845;BME280;20145;43.118;25.694;2023-07-20T01:08:33;99057.75;;;24.04;74.80
33845;BME280;20145;43.118;25.694;2023-07-20T01:12:00;99003.75;;;24.10;74.70
33845;BME280;20145;43.118;25.694;2023-07-20T01:14:05;98877.78;;;24.02;76.98
33845;BME280;20145;43.118;25.694;2023-07-20T01:16:30;98825.69;;;23.84;77.96
33845;BME280;20145;43.118;25.694;2023-07-20T01:18:56;98814.44;;;23.57;76.62
33845;BME280;20145;43.118;25.694;2023-07-20T01:21:28;98835.91;;;23.64;77.03
33845;BME280;20145;43.118;25.694;2023-07-20T01:32:28;98850.66;;;22.82;83.15
33845;BME280;20145;43.118;25.694;2023-07-20T01:34:56;98854.44;;;22.78;82.64
33845;BME280;20145;43.118;25.694;2023-07-20T01:37:24;98836.09;;;23.02;82.09
33845;BME280;20145;43.118;25.694;2023-07-20T01:39:54;98838.91;;;23.11;80.12
33845;BME280;20145;43.118;25.694;2023-07-20T01:42:22;98806.19;;;23.03;80.61
33845;BME280;20145;43.118;25.694;2023-07-20T01:44:52;98785.88;;;23.05;80.50
33845;BME280;20145;43.118;25.694;2023-07-20T01:47:19;98790.53;;;23.01;78.36
33845;BME280;20145;43.118;25.694;2023-07-20T01:49:44;98773.00;;;23.13;79.08
33845;BME280;20145;43.118;25.694;2023-07-20T01:52:10;98777.97;;;23.05;78.95
33845;BME280;20145;43.118;25.694;2023-07-20T01:54:36;98784.13;;;22.92;80.79
33845;BME280;20145;43.118;25.694;2023-07-20T01:57:01;98795.47;;;22.93;80.85
33845;BME280;20145;43.118;25.694;2023-07-20T01:59:27;98815.28;;;22.99;81.67
33845;BME280;20145;43.118;25.694;2023-07-20T02:01:52;98821.16;;;23.02;81.37
33845;BME280;20145;43.118;25.694;2023-07-20T02:04:18;98796.75;;;22.87;81.15
33845;BME280;20145;43.118;25.694;2023-07-20T02:06:43;98809.78;;;22.89;80.73
33845;BME280;20145;43.118;25.694;2023-07-20T02:09:09;98812.59;;;23.11;82.24
33845;BME280;20145;43.118;25.694;2023-07-20T02:11:34;98815.84;;;23.15;80.19
33845;BME280;20145;43.118;25.694;2023-07-20T02:14:00;98819.25;;;23.28;78.37
33845;BME280;20145;43.118;25.694;2023-07-20T02:16:26;98802.28;;;23.44;78.33
33845;BME280;20145;43.118;25.694;2023-07-20T02:18:52;98788.78;;;23.48;77.60
33845;BME280;20145;43.118;25.694;2023-07-20T02:21:18;98792.72;;;23.43;76.59
33845;BME280;20145;43.118;25.694;2023-07-20T02:23:43;98784.84;;;23.54;75.18
33845;BME280;20145;43.118;25.694;2023-07-20T02:26:09;98776.00;;;23.55;75.78
33845;BME280;20145;43.118;25.694;2023-07-20T02:28:34;98776.63;;;23.58;74.07
33845;BME280;20145;43.118;25.694;2023-07-20T02:31:00;98765.78;;;23.39;73.73
33845;BME280;20145;43.118;25.694;2023-07-20T02:33:26;98769.72;;;23.33;74.72
33845;BME280;20145;43.118;25.694;2023-07-20T02:35:52;98763.56;;;23.22;76.09
33845;BME280;20145;43.118;25.694;2023-07-20T02:38:18;98766.28;;;23.09;76.42
33845;BME280;20145;43.118;25.694;2023-07-20T02:40:43;98774.66;;;23.14;77.33
33845;BME280;20145;43.118;25.694;2023-07-20T02:43:09;98765.41;;;23.32;78.25
33845;BME280;20145;43.118;25.694;2023-07-20T02:45:35;98778.09;;;23.38;77.10
33845;BME280;20145;43.118;25.694;2023-07-20T02:48:00;98765.78;;;23.39;77.07
33845;BME280;20145;43.118;25.694;2023-07-20T02:50:26;98762.66;;;23.34;75.90
33845;BME280;20145;43.118;25.694;2023-07-20T02:52:51;98752.69;;;23.26;77.23
33845;BME280;20145;43.118;25.694;2023-07-20T02:55:17;98760.41;;;23.41;76.77
33845;BME280;20145;43.118;25.694;2023-07-20T02:57:43;98766.97;;;23.35;75.48
33845;BME280;20145;43.118;25.694;2023-07-20T03:00:09;98770.78;;;23.31;75.32
33845;BME280;20145;43.118;25.694;2023-07-20T03:02:35;98798.56;;;23.35;74.05
33845;BME280;20145;43.118;25.694;2023-07-20T03:05:01;98806.63;;;23.45;73.39
33845;BME280;20145;43.118;25.694;2023-07-20T03:07:29;98825.78;;;23.58;73.95
33845;BME280;20145;43.118;25.694;2023-07-20T03:09:55;98834.03;;;23.42;74.97
33845;BME280;20145;43.118;25.694;2023-07-20T03:12:21;98843.41;;;23.57;75.56
33845;BME280;20145;43.118;25.694;2023-07-20T03:14:47;98838.59;;;23.51;75.63
33845;BME280;20145;43.118;25.694;2023-07-20T03:17:12;98823.13;;;23.47;76.44
33845;BME280;20145;43.118;25.694;2023-07-20T03:19:38;98818.03;;;23.56;77.31
33845;BME280;20145;43.118;25.694;2023-07-20T03:22:04;98840.72;;;23.46;75.71
33845;BME280;20145;43.118;25.694;2023-07-20T03:24:29;98836.19;;;23.48;76.62
33845;BME280;20145;43.118;25.694;2023-07-20T03:26:55;98856.81;;;23.54;75.08
33845;BME280;20145;43.118;25.694;2023-07-20T03:29:20;98865.44;;;23.56;74.35
33845;BME280;20145;43.118;25.694;2023-07-20T03:31:46;98868.28;;;23.77;73.96
33845;BME280;20145;43.118;25.694;2023-07-20T03:34:11;98867.09;;;23.81;74.78
33845;BME280;20145;43.118;25.694;2023-07-20T03:36:37;98877.94;;;24.01;73.91
33845;BME280;20145;43.118;25.694;2023-07-20T03:39:03;98885.09;;;23.99;72.67
33845;BME280;20145;43.118;25.694;2023-07-20T03:41:28;98884.59;;;23.82;72.96
33845;BME280;20145;43.118;25.694;2023-07-20T03:43:54;98904.03;;;23.93;73.97
33845;BME280;20145;43.118;25.694;2023-07-20T03:46:20;98911.13;;;24.03;74.22
33845;BME280;20145;43.118;25.694;2023-07-20T03:48:45;98904.16;;;24.02;73.60
33845;BME280;20145;43.118;25.694;2023-07-20T03:51:11;98909.50;;;24.25;74.04
33845;BME280;20145;43.118;25.694;2023-07-20T03:53:36;98905.91;;;24.37;73.27
33845;BME280;20145;43.118;25.694;2023-07-20T03:56:02;98903.84;;;24.30;72.03
33845;BME280;20145;43.118;25.694;2023-07-20T03:58:27;98910.56;;;24.22;72.02
33845;BME280;20145;43.118;25.694;2023-07-20T04:00:53;98914.28;;;24.31;72.18
33845;BME280;20145;43.118;25.694;2023-07-20T04:03:19;98900.28;;;24.31;72.46
33845;BME280;20145;43.118;25.694;2023-07-20T04:05:45;98914.09;;;24.57;71.88
33845;BME280;20145;43.118;25.694;2023-07-20T04:08:11;98924.06;;;24.53;71.93
33845;BME280;20145;43.118;25.694;2023-07-20T04:10:37;98933.16;;;24.49;71.30
33845;BME280;20145;43.118;25.694;2023-07-20T04:13:03;98931.59;;;24.58;71.24
33845;BME280;20145;43.118;25.694;2023-07-20T04:15:29;98932.69;;;24.66;70.38
33845;BME280;20145;43.118;25.694;2023-07-20T04:17:55;98921.28;;;24.55;70.47
33845;BME280;20145;43.118;25.694;2023-07-20T04:20:22;98935.22;;;24.68;70.41
33845;BME280;20145;43.118;25.694;2023-07-20T04:22:49;98918.78;;;24.64;70.01
33845;BME280;20145;43.118;25.694;2023-07-20T04:25:15;98901.34;;;25.07;70.61
33845;BME280;20145;43.118;25.694;2023-07-20T04:27:41;98915.91;;;25.77;67.40
33845;BME280;20145;43.118;25.694;2023-07-20T04:30:08;98902.16;;;26.15;65.60
33845;BME280;20145;43.118;25.694;2023-07-20T04:32:33;98913.50;;;26.27;65.28
33845;BME280;20145;43.118;25.694;2023-07-20T04:34:59;98911.97;;;26.76;63.53
33845;BME280;20145;43.118;25.694;2023-07-20T04:37:25;98920.75;;;27.27;61.75
33845;BME280;20145;43.118;25.694;2023-07-20T04:39:50;98912.84;;;27.75;61.67
33845;BME280;20145;43.118;25.694;2023-07-20T04:42:15;98900.56;;;28.03;59.44
33845;BME280;20145;43.118;25.694;2023-07-20T04:44:41;98895.22;;;28.23;59.62
33845;BME280;20145;43.118;25.694;2023-07-20T04:47:08;98875.03;;;27.93;59.53
33845;BME280;20145;43.118;25.694;2023-07-20T04:49:34;98887.84;;;28.17;58.45
33845;BME280;20145;43.118;25.694;2023-07-20T04:51:59;98878.53;;;28.03;58.89
33845;BME280;20145;43.118;25.694;2023-07-20T04:54:25;98888.75;;;27.88;58.80
33845;BME280;20145;43.118;25.694;2023-07-20T04:56:53;98866.38;;;27.52;59.80
33845;BME280;20145;43.118;25.694;2023-07-20T04:59:18;98893.03;;;27.41;60.19
33845;BME280;20145;43.118;25.694;2023-07-20T05:01:44;98890.09;;;27.24;60.54
33845;BME280;20145;43.118;25.694;2023-07-20T05:04:10;98880.91;;;27.28;60.51
33845;BME280;20145;43.118;25.694;2023-07-20T05:06:37;98894.69;;;27.32;61.20
33845;BME280;20145;43.118;25.694;2023-07-20T05:09:04;98890.66;;;27.28;60.25
33845;BME280;20145;43.118;25.694;2023-07-20T05:11:33;98887.25;;;27.06;61.03
33845;BME280;20145;43.118;25.694;2023-07-20T05:13:59;98888.66;;;27.10;60.73
33845;BME280;20145;43.118;25.694;2023-07-20T05:16:25;98895.63;;;27.11;60.99
33845;BME280;20145;43.118;25.694;2023-07-20T05:18:52;98901.09;;;27.20;61.41
33845;BME280;20145;43.118;25.694;2023-07-20T05:21:17;98904.28;;;27.13;61.44
33845;BME280;20145;43.118;25.694;2023-07-20T05:23:43;98897.91;;;27.26;61.36
33845;BME280;20145;43.118;25.694;2023-07-20T05:26:09;98914.81;;;27.44;61.50
33845;BME280;20145;43.118;25.694;2023-07-20T05:28:36;98901.81;;;27.31;61.68
33845;BME280;20145;43.118;25.694;2023-07-20T05:31:05;98907.44;;;27.57;60.90
33845;BME280;20145;43.118;25.694;2023-07-20T05:33:31;98894.19;;;27.87;60.99
33845;BME280;20145;43.118;25.694;2023-07-20T05:35:56;98917.59;;;28.11;59.03
33845;BME280;20145;43.118;25.694;2023-07-20T05:38:22;98900.59;;;27.84;60.57
33845;BME280;20145;43.118;25.694;2023-07-20T05:40:48;98919.88;;;27.86;59.96
33845;BME280;20145;43.118;25.694;2023-07-20T05:43:14;98911.47;;;28.00;60.58
33845;BME280;20145;43.118;25.694;2023-07-20T05:45:42;98909.22;;;28.06;59.08
33845;BME280;20145;43.118;25.694;2023-07-20T05:48:08;98910.22;;;27.95;58.58
33845;BME280;20145;43.118;25.694;2023-07-20T05:50:37;98913.41;;;28.08;59.86
33845;BME280;20145;43.118;25.694;2023-07-20T05:53:03;98901.38;;;28.23;59.01
33845;BME280;20145;43.118;25.694;2023-07-20T05:55:29;98905.66;;;28.34;56.88
33845;BME280;20145;43.118;25.694;2023-07-20T05:57:55;98908.31;;;28.34;58.57
33845;BME280;20145;43.118;25.694;2023-07-20T06:00:21;98907.59;;;28.42;56.49
33845;BME280;20145;43.118;25.694;2023-07-20T06:02:52;98913.19;;;28.49;56.43
33845;BME280;20145;43.118;25.694;2023-07-20T06:05:19;98909.16;;;28.44;56.31
33845;BME280;20145;43.118;25.694;2023-07-20T06:07:45;98905.09;;;28.50;57.46
33845;BME280;20145;43.118;25.694;2023-07-20T06:10:11;98910.88;;;28.73;57.02
33845;BME280;20145;43.118;25.694;2023-07-20T06:12:36;98904.31;;;28.67;56.26
33845;BME280;20145;43.118;25.694;2023-07-20T06:15:03;98916.44;;;28.80;55.28
33845;BME280;20145;43.118;25.694;2023-07-20T06:17:29;98901.25;;;28.72;56.41
33845;BME280;20145;43.118;25.694;2023-07-20T06:19:55;98899.00;;;29.05;54.81
33845;BME280;20145;43.118;25.694;2023-07-20T06:22:21;98910.38;;;29.15;54.04
33845;BME280;20145;43.118;25.694;2023-07-20T06:24:46;98907.38;;;29.00;53.65
33845;BME280;20145;43.118;25.694;2023-07-20T06:27:12;98914.81;;;28.97;54.80
33845;BME280;20145;43.118;25.694;2023-07-20T06:29:38;98901.22;;;29.00;52.64
33845;BME280;20145;43.118;25.694;2023-07-20T06:32:04;98902.72;;;29.12;52.69
33845;BME280;20145;43.118;25.694;2023-07-20T06:34:30;98906.50;;;29.09;52.91
33845;BME280;20145;43.118;25.694;2023-07-20T06:36:56;98906.56;;;28.72;53.88
33845;BME280;20145;43.118;25.694;2023-07-20T06:39:21;98909.28;;;28.43;53.77
33845;BME280;20145;43.118;25.694;2023-07-20T06:41:47;98912.75;;;28.53;54.55
33845;BME280;20145;43.118;25.694;2023-07-20T06:44:13;98916.13;;;28.55;54.13
33845;BME280;20145;43.118;25.694;2023-07-20T06:46:39;98908.19;;;28.26;54.04
33845;BME280;20145;43.118;25.694;2023-07-20T06:49:06;98912.50;;;28.37;54.32
33845;BME280;20145;43.118;25.694;2023-07-20T06:51:32;98916.44;;;28.33;54.48
33845;BME280;20145;43.118;25.694;2023-07-20T06:53:58;98930.22;;;28.56;55.45
33845;BME280;20145;43.118;25.694;2023-07-20T06:56:23;98928.28;;;28.48;54.04
33845;BME280;20145;43.118;25.694;2023-07-20T06:58:49;98929.13;;;28.29;54.80
33845;BME280;20145;43.118;25.694;2023-07-20T07:01:14;98933.06;;;28.25;55.44
33845;BME280;20145;43.118;25.694;2023-07-20T07:03:40;98922.31;;;28.27;56.10
33845;BME280;20145;43.118;25.694;2023-07-20T07:06:06;98927.88;;;28.33;56.60
33845;BME280;20145;43.118;25.694;2023-07-20T07:08:32;98928.28;;;28.48;56.10
33845;BME280;20145;43.118;25.694;2023-07-20T07:10:58;98917.50;;;28.59;55.38
33845;BME280;20145;43.118;25.694;2023-07-20T07:13:23;98919.19;;;28.51;54.60
33845;BME280;20145;43.118;25.694;2023-07-20T07:15:50;98918.22;;;28.52;54.73
33845;BME280;20145;43.118;25.694;2023-07-20T07:18:16;98929.94;;;28.59;55.04
33845;BME280;20145;43.118;25.694;2023-07-20T07:20:53;98919.56;;;28.65;55.75
33845;BME280;20145;43.118;25.694;2023-07-20T07:23:18;98919.47;;;28.85;55.51
33845;BME280;20145;43.118;25.694;2023-07-20T07:25:48;98921.16;;;28.86;54.41
33845;BME280;20145;43.118;25.694;2023-07-20T07:28:13;98922.31;;;28.74;54.81
33845;BME280;20145;43.118;25.694;2023-07-20T07:30:40;98917.19;;;28.62;55.64
33845;BME280;20145;43.118;25.694;2023-07-20T07:33:05;98929.16;;;28.76;55.65
33845;BME280;20145;43.118;25.694;2023-07-20T07:35:31;98924.09;;;28.45;56.24
33845;BME280;20145;43.118;25.694;2023-07-20T07:37:57;98926.41;;;28.68;55.91
33845;BME280;20145;43.118;25.694;2023-07-20T07:40:23;98939.66;;;28.68;56.13
33845;BME280;20145;43.118;25.694;2023-07-20T07:42:49;98934.75;;;28.73;55.18
33845;BME280;20145;43.118;25.694;2023-07-20T07:45:15;98946.31;;;28.82;55.99
33845;BME280;20145;43.118;25.694;2023-07-20T07:47:42;98940.25;;;28.99;55.10
33845;BME280;20145;43.118;25.694;2023-07-20T07:50:09;98944.91;;;29.25;54.58
33845;BME280;20145;43.118;25.694;2023-07-20T07:52:35;98937.97;;;29.32;52.96
33845;BME280;20145;43.118;25.694;2023-07-20T07:55:00;98939.28;;;29.28;53.32
33845;BME280;20145;43.118;25.694;2023-07-20T07:57:26;98939.75;;;29.41;53.21
33845;BME280;20145;43.118;25.694;2023-07-20T07:59:52;98945.25;;;29.57;53.65
33845;BME280;20145;43.118;25.694;2023-07-20T08:02:18;98930.91;;;29.68;53.76
33845;BME280;20145;43.118;25.694;2023-07-20T08:04:51;98934.59;;;29.57;52.79
33845;BME280;20145;43.118;25.694;2023-07-20T08:07:29;98954.88;;;29.58;52.86
33845;BME280;20145;43.118;25.694;2023-07-20T08:09:56;98933.91;;;29.55;53.31
33845;BME280;20145;43.118;25.694;2023-07-20T08:12:22;98938.59;;;29.71;52.80
33845;BME280;20145;43.118;25.694;2023-07-20T08:14:48;98944.28;;;29.76;53.21
33845;BME280;20145;43.118;25.694;2023-07-20T08:17:14;98937.72;;;29.71;52.65
33845;BME280;20145;43.118;25.694;2023-07-20T08:19:39;98948.06;;;29.92;52.24
33845;BME280;20145;43.118;25.694;2023-07-20T08:22:07;98937.50;;;30.00;51.46
33845;BME280;20145;43.118;25.694;2023-07-20T08:24:32;98942.88;;;29.90;50.73
33845;BME280;20145;43.118;25.694;2023-07-20T08:26:58;98949.72;;;29.93;51.41
33845;BME280;20145;43.118;25.694;2023-07-20T08:29:24;98960.16;;;29.86;51.66
33845;BME280;20145;43.118;25.694;2023-07-20T08:31:50;98968.44;;;29.83;52.29
33845;BME280;20145;43.118;25.694;2023-07-20T08:34:16;98953.25;;;29.75;52.27
33845;BME280;20145;43.118;25.694;2023-07-20T08:36:42;98952.28;;;29.76;52.67
33845;BME280;20145;43.118;25.694;2023-07-20T08:39:07;98954.53;;;29.89;51.85
33845;BME280;20145;43.118;25.694;2023-07-20T08:41:34;98943.03;;;29.71;52.33
33845;BME280;20145;43.118;25.694;2023-07-20T08:44:07;98940.78;;;29.76;51.70
33845;BME280;20145;43.118;25.694;2023-07-20T08:46:34;98937.72;;;29.71;52.12
33845;BME280;20145;43.118;25.694;2023-07-20T08:49:00;98944.06;;;29.88;51.18
33845;BME280;20145;43.118;25.694;2023-07-20T08:51:29;98948.53;;;29.69;52.59
33845;BME280;20145;43.118;25.694;2023-07-20T08:53:55;98952.19;;;29.86;53.19
33845;BME280;20145;43.118;25.694;2023-07-20T08:56:23;98951.69;;;30.09;51.82
33845;BME280;20145;43.118;25.694;2023-07-20T08:58:52;98934.25;;;30.14;51.56
33845;BME280;20145;43.118;25.694;2023-07-20T09:01:22;98952.91;;;30.32;51.65
33845;BME280;20145;43.118;25.694;2023-07-20T09:03:48;98949.28;;;30.41;50.99
33845;BME280;20145;43.118;25.694;2023-07-20T09:06:16;98946.63;;;30.41;50.41
33845;BME280;20145;43.118;25.694;2023-07-20T09:08:42;98960.78;;;30.68;50.99
33845;BME280;20145;43.118;25.694;2023-07-20T09:11:11;98955.78;;;30.73;50.02
33845;BME280;20145;43.118;25.694;2023-07-20T09:13:37;98961.84;;;31.09;50.74
33845;BME280;20145;43.118;25.694;2023-07-20T09:16:03;98974.78;;;30.96;50.65
33845;BME280;20145;43.118;25.694;2023-07-20T09:18:32;98984.56;;;31.30;49.27
33845;BME280;20145;43.118;25.694;2023-07-20T09:20:58;98994.22;;;31.31;49.02
33845;BME280;20145;43.118;25.694;2023-07-20T09:23:36;98988.31;;;31.11;49.81
33845;BME280;20145;43.118;25.694;2023-07-20T09:26:10;98991.88;;;30.85;50.15
33845;BME280;20145;43.118;25.694;2023-07-20T09:28:56;98983.38;;;30.64;50.81
33845;BME280;20145;43.118;25.694;2023-07-20T09:31:22;98979.66;;;30.49;50.10
33845;BME280;20145;43.118;25.694;2023-07-20T09:33:49;98971.44;;;30.42;50.90
33845;BME280;20145;43.118;25.694;2023-07-20T09:36:17;98938.66;;;30.41;52.20
33845;BME280;20145;43.118;25.694;2023-07-20T09:38:43;98939.22;;;30.53;51.99
33845;BME280;20145;43.118;25.694;2023-07-20T09:41:13;98935.81;;;30.69;53.20
33845;BME280;20145;43.118;25.694;2023-07-20T09:43:40;98921.41;;;30.80;50.50
33845;BME280;20145;43.118;25.694;2023-07-20T09:46:07;98915.78;;;30.65;51.31
33845;BME280;20145;43.118;25.694;2023-07-20T09:48:32;98927.09;;;30.59;51.81
33845;BME280;20145;43.118;25.694;2023-07-20T09:50:58;98951.00;;;30.77;50.80
33845;BME280;20145;43.118;25.694;2023-07-20T09:53:25;98944.59;;;30.87;50.14
33845;BME280;20145;43.118;25.694;2023-07-20T09:55:52;98926.56;;;30.81;50.66
33845;BME280;20145;43.118;25.694;2023-07-20T09:58:18;98924.69;;;30.74;51.16
33845;BME280;20145;43.118;25.694;2023-07-20T10:00:45;98916.78;;;30.98;51.12
33845;BME280;20145;43.118;25.694;2023-07-20T10:03:20;98906.22;;;31.31;49.69
33845;BME280;20145;43.118;25.694;2023-07-20T10:05:51;98906.31;;;31.64;49.11
33845;BME280;20145;43.118;25.694;2023-07-20T10:08:18;98895.97;;;32.10;49.46
33845;BME280;20145;43.118;25.694;2023-07-20T10:10:47;98891.75;;;32.48;46.69
33845;BME280;20145;43.118;25.694;2023-07-20T10:13:28;98897.09;;;32.40;46.32
33845;BME280;20145;43.118;25.694;2023-07-20T10:16:02;98898.47;;;32.19;46.59
33845;BME280;20145;43.118;25.694;2023-07-20T10:18:47;98896.66;;;31.87;47.31
33845;BME280;20145;43.118;25.694;2023-07-20T10:21:17;98900.16;;;31.80;48.52
33845;BME280;20145;43.118;25.694;2023-07-20T10:23:44;98893.31;;;31.77;49.72
33845;BME280;20145;43.118;25.694;2023-07-20T10:26:11;98897.47;;;31.80;48.70
33845;BME280;20145;43.118;25.694;2023-07-20T10:28:40;98903.97;;;31.69;50.39
33845;BME280;20145;43.118;25.694;2023-07-20T10:31:08;98903.31;;;31.83;49.33
33845;BME280;20145;43.118;25.694;2023-07-20T10:33:35;98885.13;;;31.46;50.11
33845;BME280;20145;43.118;25.694;2023-07-20T10:36:03;98893.78;;;31.64;50.47
33845;BME280;20145;43.118;25.694;2023-07-20T10:38:40;98883.31;;;31.79;49.67
33845;BME280;20145;43.118;25.694;2023-07-20T10:44:12;98883.13;;;31.56;50.02
33845;BME280;20145;43.118;25.694;2023-07-20T10:49:08;98878.94;;;31.62;49.08
33845;BME280;20145;43.118;25.694;2023-07-20T10:51:43;98872.09;;;31.59;49.76
33845;BME280;20145;43.118;25.694;2023-07-20T10:57:20;98884.47;;;31.60;49.17
33845;BME280;20145;43.118;25.694;2023-07-20T10:59:42;98865.47;;;31.71;49.73
33845;BME280;20145;43.118;25.694;2023-07-20T11:02:08;98869.28;;;31.77;48.59
33845;BME280;20145;43.118;25.694;2023-07-20T11:04:46;98862.44;;;31.83;49.00
33845;BME280;20145;43.118;25.694;2023-07-20T11:07:17;98861.47;;;31.92;48.84
33845;BME280;20145;43.118;25.694;2023-07-20T11:09:43;98867.59;;;31.84;47.55
33845;BME280;20145;43.118;25.694;2023-07-20T11:12:13;98850.78;;;31.75;47.99
33845;BME280;20145;43.118;25.694;2023-07-20T11:14:53;98839.59;;;31.72;48.05
33845;BME280;20145;43.118;25.694;2023-07-20T11:17:19;98865.63;;;31.94;47.52
33845;BME280;20145;43.118;25.694;2023-07-20T11:19:48;98847.28;;;31.91;48.45
33845;BME280;20145;43.118;25.694;2023-07-20T11:22:16;98846.78;;;32.04;47.66
33845;BME280;20145;43.118;25.694;2023-07-20T11:24:42;98848.09;;;31.75;47.93
33845;BME280;20145;43.118;25.694;2023-07-20T11:27:08;98845.09;;;31.87;47.84
33845;BME280;20145;43.118;25.694;2023-07-20T11:29:35;98831.13;;;31.93;47.79
33845;BME280;20145;43.118;25.694;2023-07-20T11:32:02;98842.09;;;31.98;47.99
33845;BME280;20145;43.118;25.694;2023-07-20T11:34:30;98831.59;;;31.88;46.06
33845;BME280;20145;43.118;25.694;2023-07-20T11:36:56;98835.44;;;32.02;46.64
33845;BME280;20145;43.118;25.694;2023-07-20T11:39:23;98831.91;;;32.18;44.35
33845;BME280;20145;43.118;25.694;2023-07-20T11:41:55;98841.25;;;31.97;44.86
33845;BME280;20145;43.118;25.694;2023-07-20T11:44:26;98832.75;;;32.10;45.46
33845;BME280;20145;43.118;25.694;2023-07-20T11:47:07;98821.38;;;32.16;44.93
33845;BME280;20145;43.118;25.694;2023-07-20T11:49:36;98826.03;;;32.22;43.63
33845;BME280;20145;43.118;25.694;2023-07-20T11:52:06;98816.53;;;32.12;44.27
33845;BME280;20145;43.118;25.694;2023-07-20T11:54:34;98827.84;;;32.30;45.36
33845;BME280;20145;43.118;25.694;2023-07-20T11:57:03;98805.31;;;32.33;43.96
33845;BME280;20145;43.118;25.694;2023-07-20T11:59:32;98816.78;;;32.41;43.31
33845;BME280;20145;43.118;25.694;2023-07-20T12:02:01;98805.94;;;32.43;43.52
33845;BME280;20145;43.118;25.694;2023-07-20T12:04:27;98803.09;;;32.36;43.17
33845;BME280;20145;43.118;25.694;2023-07-20T12:06:54;98804.25;;;32.50;43.66
33845;BME280;20145;43.118;25.694;2023-07-20T12:09:30;98789.56;;;32.54;43.70
33845;BME280;20145;43.118;25.694;2023-07-20T12:12:18;98804.56;;;32.86;44.59
33845;BME280;20145;43.118;25.694;2023-07-20T12:14:44;98779.38;;;32.81;42.08
33845;BME280;20145;43.118;25.694;2023-07-20T12:17:09;98782.09;;;32.73;43.54
33845;BME280;20145;43.118;25.694;2023-07-20T12:19:38;98769.13;;;32.61;43.56
33845;BME280;20145;43.118;25.694;2023-07-20T12:22:05;98776.00;;;32.87;43.64
33845;BME280;20145;43.118;25.694;2023-07-20T12:24:42;98760.53;;;32.97;45.19
33845;BME280;20145;43.118;25.694;2023-07-20T12:27:28;98759.63;;;33.13;42.50
33845;BME280;20145;43.118;25.694;2023-07-20T12:29:54;98756.44;;;33.18;42.02
33845;BME280;20145;43.118;25.694;2023-07-20T12:32:22;98760.53;;;33.43;40.35
33845;BME280;20145;43.118;25.694;2023-07-20T12:35:05;98739.03;;;33.60;40.88
33845;BME280;20145;43.118;25.694;2023-07-20T12:37:32;98723.88;;;33.67;41.95
33845;BME280;20145;43.118;25.694;2023-07-20T12:43:12;98724.75;;;33.44;40.45
33845;BME280;20145;43.118;25.694;2023-07-20T12:45:38;98722.22;;;33.81;40.23
33845;BME280;20145;43.118;25.694;2023-07-20T12:48:15;98722.88;;;34.12;38.82
33845;BME280;20145;43.118;25.694;2023-07-20T12:50:51;98725.63;;;34.04;39.81
33845;BME280;20145;43.118;25.694;2023-07-20T12:53:17;98732.50;;;34.58;40.04
33845;BME280;20145;43.118;25.694;2023-07-20T12:59:00;98740.09;;;35.12;38.49
33845;BME280;20145;43.118;25.694;2023-07-20T13:01:33;98739.97;;;35.20;36.91
33845;BME280;20145;43.118;25.694;2023-07-20T13:03:59;98735.22;;;34.79;38.38
33845;BME280;20145;43.118;25.694;2023-07-20T13:06:27;98734.28;;;34.51;38.21
33845;BME280;20145;43.118;25.694;2023-07-20T13:09:03;98720.41;;;34.47;39.64
33845;BME280;20145;43.118;25.694;2023-07-20T13:11:37;98735.44;;;34.63;39.44
33845;BME280;20145;43.118;25.694;2023-07-20T13:14:02;98734.81;;;34.46;39.07
33845;BME280;20145;43.118;25.694;2023-07-20T13:16:41;98715.09;;;34.03;38.67